Time;durP1;ratioP1;P1;durP2;ratioP2;P2;SDS_P1;SDS_P2;PMS_P1;PMS_P2;Temp;Humidity;BMP_temperature;BMP_pressure;BME280_temperature;BME280_humidity;BME280_pressure;Samples;Min_cycle;Max_cycle;Signal;HPM_P1;HPM_P2
2022/12/18 00:04:45;;;;;;;58.50;26.80;;;;;;;-1.06;63.23;100455.21;222742;1257;140573;-66
2022/12/18 00:09:49;;;;;;;61.40;27.80;;;;;;;-1.05;63.12;100465.84;222802;1262;139001;-65
2022/12/18 00:14:56;;;;;;;57.30;25.20;;;;;;;-1.01;63.15;100468.47;222667;1261;140423;-65
2022/12/18 00:20:02;;;;;;;55.50;27.20;;;;;;;-1.07;63.20;100477.66;222650;1287;139643;-65
2022/12/18 00:25:07;;;;;;;57.70;26.40;;;;;;;-1.11;63.24;100482.85;222647;1277;139508;-66
2022/12/18 00:30:14;;;;;;;56.60;26.00;;;;;;;-1.16;63.65;100496.22;222741;1264;139631;-66
2022/12/18 00:35:38;;;;;;;59.10;27.00;;;;;;;-1.18;63.51;100502.27;222556;1261;139727;-64
2022/12/18 00:40:48;;;;;;;61.00;27.70;;;;;;;-1.15;63.59;100501.09;222695;1264;139530;-65
2022/12/18 00:46:07;;;;;;;57.40;26.50;;;;;;;-1.13;63.18;100509.65;222733;1261;140219;-65
2022/12/18 00:51:12;;;;;;;51.10;25.30;;;;;;;-1.02;63.41;100518.27;222619;1263;139300;-64
2022/12/18 00:56:16;;;;;;;44.40;23.00;;;;;;;-0.93;62.47;100524.63;222713;1261;139308;-64
2022/12/18 01:01:20;;;;;;;40.00;19.50;;;;;;;-0.89;61.83;100534.58;222667;1257;138949;-63
2022/12/18 01:06:29;;;;;;;34.40;17.70;;;;;;;-0.88;61.16;100535.98;222605;1270;139679;-65
2022/12/18 01:11:33;;;;;;;33.90;17.20;;;;;;;-0.87;60.75;100542.79;222558;1264;139823;-64
2022/12/18 01:16:47;;;;;;;36.30;19.60;;;;;;;-0.96;60.88;100555.95;222527;1261;139367;-65
2022/12/18 01:22:05;;;;;;;33.10;17.60;;;;;;;-1.00;61.24;100562.70;222711;1288;139260;-64
2022/12/18 01:27:23;;;;;;;35.90;17.20;;;;;;;-1.02;61.03;100567.90;222789;1261;140504;-65
2022/12/18 01:32:32;;;;;;;38.00;17.50;;;;;;;-1.10;61.38;100566.78;222724;1258;139049;-66
2022/12/18 01:37:52;;;;;;;31.60;16.40;;;;;;;-1.11;61.14;100571.48;222722;1264;139035;-66
2022/12/18 01:43:28;;;;;;;30.10;15.20;;;;;;;-1.07;61.08;100571.70;222575;1261;139041;-73
2022/12/18 01:48:35;;;;;;;31.50;16.90;;;;;;;-1.09;61.02;100575.16;222552;1264;139323;-67
2022/12/18 01:53:43;;;;;;;28.90;16.00;;;;;;;-1.13;60.90;100579.64;222771;1289;139233;-68
2022/12/18 01:59:05;;;;;;;30.30;16.80;;;;;;;-1.13;60.85;100585.23;222439;1268;139119;-70
2022/12/18 02:04:46;;;;;;;31.60;16.80;;;;;;;-1.15;60.80;100594.08;222752;1264;138989;-67
2022/12/18 02:10:07;;;;;;;29.60;16.20;;;;;;;-1.13;60.77;100599.33;222627;1264;139571;-68
2022/12/18 02:15:46;;;;;;;28.60;14.80;;;;;;;-1.16;60.72;100608.70;222584;1272;139331;-64
2022/12/18 02:21:16;;;;;;;33.00;16.00;;;;;;;-1.16;60.93;100613.75;222380;1264;139563;-63
2022/12/18 02:26:46;;;;;;;30.40;14.60;;;;;;;-1.15;60.52;100621.95;222620;1264;139977;-64
2022/12/18 02:32:31;;;;;;;31.20;16.70;;;;;;;-1.10;60.80;100631.75;222536;1289;139510;-66
2022/12/18 02:37:46;;;;;;;32.40;16.70;;;;;;;-1.07;60.88;100635.96;222566;1262;139106;-67
2022/12/18 02:43:15;;;;;;;32.20;15.00;;;;;;;-1.07;60.63;100639.43;222506;1264;139162;-67
2022/12/18 02:48:24;;;;;;;31.60;15.00;;;;;;;-1.09;60.58;100648.13;222413;1262;139168;-68
2022/12/18 02:53:59;;;;;;;35.20;15.70;;;;;;;-1.05;60.52;100653.92;222579;1264;139111;-69
2022/12/18 02:59:21;;;;;;;33.40;18.00;;;;;;;-1.04;60.58;100653.41;222591;1260;139185;-69
2022/12/18 03:04:50;;;;;;;33.40;17.20;;;;;;;-1.02;60.79;100662.65;222658;1282;139700;-66
2022/12/18 03:09:58;;;;;;;37.10;18.10;;;;;;;-1.04;60.91;100669.61;222755;1264;140798;-67
2022/12/18 03:15:33;;;;;;;39.40;18.40;;;;;;;-1.04;60.84;100667.35;222644;1262;139275;-67
2022/12/18 03:20:56;;;;;;;39.40;19.20;;;;;;;-1.04;61.10;100675.02;222590;1264;139318;-69
2022/12/18 03:26:10;;;;;;;44.60;20.50;;;;;;;-1.03;61.45;100675.37;222662;1265;139429;-67
2022/12/18 03:31:20;;;;;;;47.80;22.10;;;;;;;-0.96;61.69;100680.50;222683;1265;139718;-67
2022/12/18 03:36:27;;;;;;;48.40;22.00;;;;;;;-0.92;61.64;100690.63;222680;1264;139011;-68
2022/12/18 03:42:04;;;;;;;48.00;22.00;;;;;;;-0.94;61.71;100696.19;222533;1264;140425;-71
2022/12/18 03:47:47;;;;;;;46.10;22.70;;;;;;;-0.89;61.79;100701.13;222380;1265;139069;-65
2022/12/18 03:53:22;;;;;;;45.40;22.80;;;;;;;-0.87;61.56;100711.27;222636;1281;140001;-69
2022/12/18 03:58:52;;;;;;;45.60;21.60;;;;;;;-0.94;61.62;100712.75;222813;1261;139002;-68
2022/12/18 04:04:08;;;;;;;50.30;21.90;;;;;;;-0.96;61.93;100714.64;222724;1280;139479;-69
2022/12/18 04:09:32;;;;;;;45.30;21.50;;;;;;;-0.95;61.85;100719.18;222609;1264;139215;-68
2022/12/18 04:14:59;;;;;;;47.60;22.40;;;;;;;-0.98;61.93;100726.63;222663;1288;138723;-69
2022/12/18 04:20:11;;;;;;;51.70;23.90;;;;;;;-1.00;62.08;100728.70;222756;1261;139301;-70
2022/12/18 04:25:20;;;;;;;46.80;22.60;;;;;;;-1.05;62.17;100731.95;222645;1260;139644;-68
2022/12/18 04:30:47;;;;;;;48.50;22.40;;;;;;;-1.09;62.31;100729.62;222643;1264;139719;-68
2022/12/18 04:35:56;;;;;;;50.70;23.80;;;;;;;-1.06;62.40;100743.77;222458;1265;139258;-68
2022/12/18 04:41:51;;;;;;;48.80;24.90;;;;;;;-1.08;62.45;100755.43;222339;1261;139607;-69
2022/12/18 04:47:09;;;;;;;53.30;24.20;;;;;;;-1.07;62.67;100767.45;222639;1269;139663;-68
2022/12/18 04:52:17;;;;;;;53.60;24.40;;;;;;;-1.03;62.39;100773.27;222791;1261;139055;-66
2022/12/18 04:57:54;;;;;;;57.30;25.50;;;;;;;-1.03;62.32;100773.94;222674;1261;139627;-67
2022/12/18 05:03:06;;;;;;;48.40;24.20;;;;;;;-1.03;62.21;100782.83;222623;1264;139602;-67
2022/12/18 05:08:32;;;;;;;53.00;23.70;;;;;;;-1.08;62.36;100790.09;222636;1289;139153;-67
2022/12/18 05:13:39;;;;;;;;;;;;;;;-1.09;62.47;100791.80;222656;1264;139229;-66
2022/12/18 05:18:49;;;;;;;50.50;23.60;;;;;;;-1.16;62.50;100798.16;222667;1261;125015;-66
2022/12/18 05:23:58;;;;;;;55.90;25.70;;;;;;;-1.18;62.75;100808.92;222692;1261;139244;-64
2022/12/18 05:29:05;;;;;;;102.20;50.00;;;;;;;-1.11;64.11;100809.55;222795;1264;139387;-69
2022/12/18 05:34:14;;;;;;;53.10;24.30;;;;;;;-0.98;64.38;100805.71;222658;1264;139434;-66
2022/12/18 05:39:21;;;;;;;57.50;23.90;;;;;;;-0.90;63.14;100808.59;222567;1270;139465;-66
2022/12/18 05:44:26;;;;;;;53.70;23.50;;;;;;;-0.99;62.66;100811.61;222537;1264;139862;-68
2022/12/18 05:49:40;;;;;;;47.30;20.50;;;;;;;-1.11;62.55;100817.73;222636;1261;139775;-68
2022/12/18 05:54:44;;;;;;;53.20;24.70;;;;;;;-1.17;62.79;100825.83;222626;1276;139412;-67
2022/12/18 05:59:51;;;;;;;56.80;25.40;;;;;;;-1.21;62.80;100838.66;222594;1262;140265;-67
2022/12/18 06:04:56;;;;;;;54.50;25.50;;;;;;;-1.23;62.91;100842.11;222719;1265;139200;-67
2022/12/18 06:10:19;;;;;;;56.20;25.10;;;;;;;-1.28;62.94;100844.82;222676;1262;140013;-69
2022/12/18 06:15:24;;;;;;;57.50;25.70;;;;;;;-1.27;63.10;100855.13;222904;1260;138754;-67
2022/12/18 06:20:30;;;;;;;161.20;78.10;;;;;;;-1.15;64.93;100868.88;222976;1264;139233;-66
2022/12/18 06:25:39;;;;;;;55.70;25.30;;;;;;;-0.94;64.34;100868.14;222642;1261;139957;-66
2022/12/18 06:30:48;;;;;;;56.00;25.10;;;;;;;-0.88;62.98;100867.17;222702;1262;139645;-68
2022/12/18 06:36:11;;;;;;;60.40;26.60;;;;;;;-0.80;62.30;100870.43;222595;1265;139707;-67
2022/12/18 06:41:21;;;;;;;138.80;62.60;;;;;;;-0.86;62.25;100875.39;222841;1264;138895;-67
2022/12/18 06:46:27;;;;;;;55.30;27.00;;;;;;;-0.81;63.37;100885.23;222627;1261;139364;-68
2022/12/18 06:51:37;;;;;;;56.90;26.20;;;;;;;-0.91;62.20;100894.83;222583;1260;139483;-67
2022/12/18 06:56:42;;;;;;;60.80;25.40;;;;;;;-0.98;62.29;100899.44;222656;1264;139298;-68
2022/12/18 07:01:46;;;;;;;53.60;24.30;;;;;;;-1.06;62.36;100912.55;222603;1280;138930;-68
2022/12/18 07:23:03;;;;;;;63.00;26.90;;;;;;;-1.05;62.52;100940.43;219889;1283;656756;-69
2022/12/18 07:28:19;;;;;;;44.50;21.60;;;;;;;-1.08;62.42;100945.10;222698;1265;138497;-66
2022/12/18 07:33:25;;;;;;;53.90;25.80;;;;;;;-1.09;62.49;100952.04;222627;1264;138188;-67
2022/12/18 07:38:56;;;;;;;55.90;25.00;;;;;;;-1.07;62.55;100966.16;222831;1277;138488;-67
2022/12/18 07:44:07;;;;;;;60.20;26.70;;;;;;;-1.06;62.43;100975.25;222504;1274;138868;-67
2022/12/18 07:49:22;;;;;;;58.00;26.90;;;;;;;-1.06;62.46;100981.70;222550;1288;138911;-67
2022/12/18 07:54:40;;;;;;;51.40;25.00;;;;;;;-1.01;62.46;100979.52;222592;1270;138462;-68
2022/12/18 08:00:16;;;;;;;60.50;27.10;;;;;;;-0.99;62.38;100985.63;222463;1280;139415;-69
2022/12/18 08:05:32;;;;;;;57.50;26.80;;;;;;;-1.00;62.44;100990.85;223101;1281;137565;-69
2022/12/18 08:10:47;;;;;;;61.70;26.40;;;;;;;-0.97;62.45;100989.32;222540;1264;138455;-68
2022/12/18 08:16:07;;;;;;;62.50;26.80;;;;;;;-0.91;62.35;100995.69;222329;1283;138743;-66
2022/12/18 08:21:23;;;;;;;54.00;25.90;;;;;;;-0.89;62.25;101000.61;222218;1264;140065;-65
2022/12/18 08:26:32;;;;;;;60.80;26.40;;;;;;;-0.91;62.04;101004.59;222454;1261;139425;-70
2022/12/18 08:32:16;;;;;;;63.20;27.30;;;;;;;-0.88;62.25;101010.21;222684;1264;138461;-69
2022/12/18 08:37:27;;;;;;;60.50;27.90;;;;;;;-0.86;61.96;101014.95;222491;1264;138443;-69
2022/12/18 08:48:30;;;;;;;61.40;26.40;;;;;;;-0.87;61.87;101016.86;222658;1281;138927;-68
2022/12/18 08:53:49;;;;;;;64.70;29.40;;;;;;;-0.81;62.20;101024.96;222496;1267;138685;-68
2022/12/18 08:58:56;;;;;;;61.50;28.10;;;;;;;-0.76;62.07;101027.83;222317;1265;138346;-70
2022/12/18 09:04:04;;;;;;;56.90;26.00;;;;;;;-0.70;61.95;101030.36;222255;1261;138851;-71
2022/12/18 09:09:11;;;;;;;59.00;27.00;;;;;;;-0.63;61.59;101035.02;222637;1264;141197;-71
2022/12/18 09:14:23;;;;;;;132.90;68.50;;;;;;;-0.45;64.60;101039.27;222542;1258;138463;-72
2022/12/18 09:19:27;;;;;;;57.60;27.70;;;;;;;-0.10;62.44;101039.44;222526;1261;139221;-70
2022/12/18 09:24:31;;;;;;;58.00;28.10;;;;;;;-0.17;61.06;101042.14;222544;1261;139654;-68
2022/12/18 09:29:35;;;;;;;59.80;29.60;;;;;;;-0.18;60.71;101043.52;222817;1262;139271;-69
2022/12/18 09:34:39;;;;;;;55.20;28.50;;;;;;;-0.18;60.18;101043.69;222634;1260;139159;-68
2022/12/18 09:39:43;;;;;;;61.50;29.90;;;;;;;-0.26;60.19;101043.76;222514;1264;139040;-67
2022/12/18 09:44:56;;;;;;;66.00;32.20;;;;;;;-0.23;60.33;101043.27;222660;1261;138717;-67
2022/12/18 09:50:17;;;;;;;82.50;41.00;;;;;;;-0.01;61.85;101049.69;222842;1260;138962;-68
2022/12/18 09:55:28;;;;;;;58.40;28.80;;;;;;;0.08;60.47;101052.05;222782;1278;138776;-69
2022/12/18 10:00:40;;;;;;;58.20;28.30;;;;;;;0.04;60.04;101048.16;222775;1288;138614;-68
2022/12/18 10:06:13;;;;;;;62.50;28.70;;;;;;;0.01;60.02;101049.70;222823;1262;138453;-64
2022/12/18 10:11:47;;;;;;;54.00;26.30;;;;;;;0.04;60.03;101049.41;222758;1260;138873;-64
2022/12/18 10:17:10;;;;;;;62.20;27.70;;;;;;;0.10;59.79;101044.95;222586;1265;139332;-64
2022/12/18 10:23:04;;;;;;;60.00;28.40;;;;;;;0.16;59.83;101047.81;222635;1284;140080;-65
2022/12/18 10:28:31;;;;;;;64.50;30.20;;;;;;;0.25;59.77;101055.61;222618;1261;138846;-67
2022/12/18 10:33:35;;;;;;;63.40;28.70;;;;;;;0.46;59.49;101050.26;222542;1261;139704;-66
2022/12/18 10:38:56;;;;;;;48.30;23.40;;;;;;;0.59;58.96;101040.29;222766;1262;139097;-69
2022/12/18 10:44:18;;;;;;;142.10;77.90;;;;;;;0.69;58.78;101028.50;222582;1258;138726;-68
2022/12/18 10:49:29;;;;;;;52.70;24.50;;;;;;;0.65;58.36;101033.53;222704;1260;138750;-68
2022/12/18 10:55:03;;;;;;;46.30;21.50;;;;;;;0.70;57.95;101029.56;222608;1262;140113;-64
2022/12/18 11:00:23;;;;;;;42.10;20.00;;;;;;;0.77;57.41;101028.06;222728;1267;139527;-64
2022/12/18 11:06:17;;;;;;;43.40;20.60;;;;;;;0.79;56.36;101022.67;222677;1261;138712;-66
2022/12/18 11:11:29;;;;;;;65.90;33.10;;;;;;;0.77;57.50;101018.45;222655;1261;138872;-68
2022/12/18 11:16:42;;;;;;;43.90;20.00;;;;;;;0.82;57.12;101013.10;222609;1276;139074;-67
2022/12/18 11:22:31;;;;;;;37.40;18.80;;;;;;;0.66;55.76;101008.04;222641;1264;138467;-68
2022/12/18 11:27:35;;;;;;;40.20;19.10;;;;;;;0.50;55.82;101003.86;222593;1267;138715;-66
2022/12/18 11:32:51;;;;;;;39.30;18.70;;;;;;;0.45;55.88;100997.52;222473;1283;140187;-66
2022/12/18 11:38:04;;;;;;;38.30;18.00;;;;;;;0.41;55.84;101002.56;222617;1261;139123;-66
2022/12/18 11:43:16;;;;;;;39.30;17.50;;;;;;;0.42;55.75;101004.82;222740;1261;139602;-67
2022/12/18 11:48:56;;;;;;;35.00;17.00;;;;;;;0.48;55.79;101009.77;222600;1264;138758;-68
2022/12/18 11:54:09;;;;;;;39.20;18.50;;;;;;;0.62;57.35;101013.41;222669;1264;138501;-71
2022/12/18 11:59:53;;;;;;;37.20;18.20;;;;;;;0.71;55.57;101010.02;222790;1261;139159;-69
2022/12/18 12:05:16;;;;;;;37.80;18.00;;;;;;;0.75;55.25;101013.89;222483;1278;138658;-68
2022/12/18 12:10:28;;;;;;;37.00;20.50;;;;;;;0.73;55.03;101014.58;222530;1262;138616;-69
2022/12/18 12:16:07;;;;;;;43.10;21.30;;;;;;;0.75;55.58;101010.23;222635;1264;140063;-69
2022/12/18 12:21:34;;;;;;;45.50;21.50;;;;;;;0.71;55.30;101008.27;222549;1289;139188;-70
2022/12/18 12:27:12;;;;;;;44.00;20.50;;;;;;;0.56;55.50;101006.70;222503;1263;139186;-68
2022/12/18 12:32:51;;;;;;;46.90;21.20;;;;;;;0.46;55.60;101017.26;222685;1265;139508;-64
2022/12/18 12:38:13;;;;;;;44.30;22.20;;;;;;;0.42;55.97;101028.21;222520;1264;138545;-68
2022/12/18 12:43:24;;;;;;;46.50;21.60;;;;;;;0.46;56.08;101038.20;222284;1264;142727;-67
2022/12/18 12:49:14;;;;;;;268.10;142.60;;;;;;;0.53;57.29;101049.30;222528;1257;139249;-68
2022/12/18 12:54:25;;;;;;;54.70;28.80;;;;;;;0.69;58.15;101053.48;222582;1277;141373;-64
2022/12/18 12:59:47;;;;;;;53.20;25.30;;;;;;;0.65;57.50;101058.67;222731;1272;139391;-65
2022/12/18 13:05:13;;;;;;;43.30;21.90;;;;;;;0.59;56.61;101067.35;222486;1264;139118;-69
2022/12/18 13:10:19;;;;;;;44.10;21.20;;;;;;;0.46;56.37;101069.47;222545;1260;139177;-67
2022/12/18 13:15:28;;;;;;;46.70;22.00;;;;;;;0.36;56.24;101077.55;222643;1287;138950;-65
2022/12/18 13:20:41;;;;;;;42.10;21.10;;;;;;;0.27;56.19;101078.14;222635;1265;138747;-64
2022/12/18 13:25:59;;;;;;;42.70;21.00;;;;;;;0.15;56.37;101083.04;222618;1261;139544;-67
2022/12/18 13:31:03;;;;;;;47.00;23.60;;;;;;;0.20;57.97;101085.91;222478;1265;138476;-66
2022/12/18 13:36:27;;;;;;;40.40;19.70;;;;;;;0.15;56.50;101096.84;222657;1261;138921;-67
2022/12/18 13:41:32;;;;;;;48.80;22.80;;;;;;;0.04;56.42;101099.65;222631;1264;138895;-66
2022/12/18 13:46:45;;;;;;;47.20;21.80;;;;;;;-0.07;56.36;101104.73;222526;1280;139185;-66
2022/12/18 13:51:56;;;;;;;45.70;22.90;;;;;;;-0.18;56.50;101109.10;222552;1265;139259;-69
2022/12/18 13:57:03;;;;;;;54.00;25.30;;;;;;;-0.33;56.65;101116.52;222658;1287;139242;-67
2022/12/18 14:02:15;;;;;;;58.50;27.60;;;;;;;-0.41;56.82;101122.52;222660;1261;138237;-67
2022/12/18 14:07:22;;;;;;;58.10;26.00;;;;;;;-0.47;56.76;101120.14;222590;1261;140240;-68
2022/12/18 14:18:03;;;;;;;58.50;28.60;;;;;;;-0.69;57.00;101135.83;222723;1277;139147;-67
2022/12/18 14:23:39;;;;;;;67.00;30.90;;;;;;;-0.80;56.82;101144.17;222655;1261;139146;-67
2022/12/18 14:28:44;;;;;;;;;;;;;;;-0.88;57.79;101146.80;222494;1264;139161;-68
2022/12/18 14:35:30;;;;;;;53.30;25.50;;;;;;;-1.02;57.19;101153.84;222295;1261;125699;-67
2022/12/18 14:40:40;;;;;;;57.20;28.00;;;;;;;-1.24;57.20;101151.16;221835;1261;139903;-64
2022/12/18 14:45:46;;;;;;;60.20;28.30;;;;;;;-1.41;57.32;101158.14;222513;1257;139624;-65
2022/12/18 14:51:03;;;;;;;58.20;27.60;;;;;;;-1.53;57.48;101169.55;222558;1261;139209;-64
2022/12/18 14:56:32;;;;;;;64.50;29.20;;;;;;;-1.70;57.65;101168.14;222587;1261;139095;-65
2022/12/18 15:01:44;;;;;;;63.50;30.10;;;;;;;-1.84;57.75;101174.94;222556;1262;139304;-67
2022/12/18 15:06:48;;;;;;;60.70;29.30;;;;;;;-2.01;57.92;101164.30;222622;1286;140055;-67
2022/12/18 15:12:01;;;;;;;64.90;30.00;;;;;;;-2.14;58.00;101162.42;222769;1261;139037;-68
2022/12/18 15:17:24;;;;;;;62.00;29.40;;;;;;;-2.28;58.27;101170.61;222578;1261;139121;-67
2022/12/18 15:22:35;;;;;;;69.20;29.90;;;;;;;-2.39;58.41;101181.48;222560;1276;138603;-66
2022/12/18 15:27:48;;;;;;;68.40;29.20;;;;;;;-2.51;58.50;101183.41;222646;1262;138854;-68
2022/12/18 15:33:24;;;;;;;70.60;30.40;;;;;;;-2.60;58.74;101181.95;222502;1261;139699;-66
2022/12/18 15:38:47;;;;;;;70.00;29.60;;;;;;;-2.72;58.71;101191.92;222641;1260;140099;-66
2022/12/18 15:44:00;;;;;;;71.00;32.00;;;;;;;-2.81;58.99;101202.60;222655;1260;139111;-67
2022/12/18 15:49:16;;;;;;;68.70;31.80;;;;;;;-2.92;59.01;101209.59;222776;1258;139652;-66
2022/12/18 15:59:58;;;;;;;84.80;37.80;;;;;;;-3.13;59.14;101215.77;222703;1262;139346;-65
2022/12/18 16:05:03;;;;;;;85.00;37.90;;;;;;;-3.22;59.09;101220.37;222637;1264;138881;-68
2022/12/18 16:10:07;;;;;;;93.30;41.20;;;;;;;-3.30;59.35;101221.53;222600;1261;140407;-68
2022/12/18 16:15:15;;;;;;;103.30;47.00;;;;;;;-3.36;60.20;101225.04;222562;1261;139783;-67
2022/12/18 16:20:26;;;;;;;95.60;44.20;;;;;;;-3.37;61.31;101237.99;222627;1287;140521;-67
2022/12/18 16:25:51;;;;;;;77.90;37.80;;;;;;;-3.36;60.13;101235.10;222689;1260;141073;-65
2022/12/18 16:31:12;;;;;;;81.30;37.30;;;;;;;-3.55;59.36;101237.81;222498;1261;140582;-66
2022/12/18 16:36:26;;;;;;;83.10;37.70;;;;;;;-3.67;59.46;101242.83;222665;1277;139490;-65
2022/12/18 16:41:32;;;;;;;79.10;35.80;;;;;;;-3.76;59.46;101252.92;222573;1261;139594;-65
2022/12/18 16:46:45;;;;;;;85.50;37.80;;;;;;;-3.86;59.34;101253.65;222621;1260;139853;-67
2022/12/18 16:52:49;;;;;;;82.80;36.70;;;;;;;-3.97;59.58;101263.18;222597;1261;138900;-67
2022/12/18 16:58:01;;;;;;;83.70;38.00;;;;;;;-4.09;59.83;101270.95;222518;1261;139753;-66
2022/12/18 17:03:09;;;;;;;132.50;60.60;;;;;;;-4.18;61.85;101260.58;222628;1261;139663;-65
2022/12/18 17:08:20;;;;;;;117.80;53.30;;;;;;;-4.15;60.97;101262.95;222632;1261;139432;-67
2022/12/18 17:19:14;;;;;;;90.70;41.80;;;;;;;-4.32;58.89;101270.52;222369;1262;139048;-65
2022/12/18 17:24:29;;;;;;;229.00;112.70;;;;;;;-4.45;59.59;101263.81;222576;1262;139451;-67
2022/12/18 17:29:43;;;;;;;107.10;45.40;;;;;;;-4.39;59.91;101252.95;222522;1261;140002;-65
2022/12/18 17:34:51;;;;;;;100.60;43.70;;;;;;;-4.64;57.43;101257.64;222598;1261;139835;-65
2022/12/18 17:39:55;;;;;;;108.80;45.00;;;;;;;-4.95;56.82;101248.38;222576;1276;139732;-64
2022/12/18 17:45:05;;;;;;;101.40;47.50;;;;;;;-5.17;56.81;101239.95;222535;1264;139575;-66
2022/12/18 17:50:11;;;;;;;102.90;45.30;;;;;;;-5.34;56.93;101241.75;222520;1262;139651;-64
2022/12/18 17:55:17;;;;;;;104.50;45.10;;;;;;;-5.50;57.24;101239.41;222582;1261;139249;-64
2022/12/18 18:00:21;;;;;;;103.30;44.80;;;;;;;-5.60;57.38;101232.63;222743;1258;140854;-65
2022/12/18 18:05:29;;;;;;;102.60;46.50;;;;;;;-5.72;57.51;101229.60;222653;1260;139697;-63
2022/12/18 18:10:37;;;;;;;104.20;46.20;;;;;;;-5.77;57.73;101229.58;222465;1265;139467;-62
2022/12/18 18:15:44;;;;;;;103.30;44.00;;;;;;;-5.80;58.48;101236.33;222532;1275;139937;-64
2022/12/18 18:20:49;;;;;;;104.20;43.30;;;;;;;-5.80;58.98;101237.92;222541;1276;139795;-62
2022/12/18 18:26:07;;;;;;;94.20;41.00;;;;;;;-5.76;59.42;101241.19;222613;1259;140077;-64
2022/12/18 18:31:14;;;;;;;95.60;40.90;;;;;;;-5.70;60.10;101253.70;222579;1261;139844;-65
2022/12/18 18:36:23;;;;;;;84.90;35.30;;;;;;;-5.61;60.64;101264.23;222759;1258;139930;-64
2022/12/18 18:41:37;;;;;;;88.50;38.10;;;;;;;-5.52;60.90;101274.45;222555;1262;139701;-64
2022/12/18 18:46:42;;;;;;;187.50;84.80;;;;;;;-5.33;64.22;101258.89;222497;1268;139306;-65
2022/12/18 18:51:50;;;;;;;101.20;41.40;;;;;;;-4.96;64.16;101259.59;222627;1258;140820;-65
2022/12/18 18:56:59;;;;;;;86.30;39.10;;;;;;;-5.05;60.95;101264.64;222569;1258;140200;-63
2022/12/18 19:02:30;;;;;;;81.50;37.00;;;;;;;-5.12;60.68;101258.46;222452;1264;139308;-65
2022/12/18 19:07:35;;;;;;;83.20;36.90;;;;;;;-5.19;60.10;101253.39;222544;1262;139808;-70
2022/12/18 19:18:01;;;;;;;75.30;31.80;;;;;;;-5.36;60.43;101253.79;222629;1260;139517;-68
2022/12/18 19:23:04;;;;;;;75.70;34.00;;;;;;;-5.40;60.38;101252.92;222630;1264;139544;-68
2022/12/18 19:28:08;;;;;;;72.80;33.00;;;;;;;-5.49;60.10;101260.36;222556;1272;140780;-67
2022/12/18 19:33:25;;;;;;;77.50;32.40;;;;;;;-5.54;60.36;101273.15;222416;1265;139079;-64
2022/12/18 19:38:47;;;;;;;76.20;32.20;;;;;;;-5.50;60.92;101268.46;222608;1261;139255;-67
2022/12/18 19:43:55;;;;;;;70.10;31.90;;;;;;;-5.50;61.06;101280.08;222462;1265;139153;-64
2022/12/18 19:49:01;;;;;;;74.60;32.50;;;;;;;-5.50;61.15;101285.58;222596;1261;139705;-67
2022/12/18 19:54:05;;;;;;;78.00;33.10;;;;;;;-5.47;61.49;101289.86;222658;1262;139060;-67
2022/12/18 19:59:10;;;;;;;74.60;32.50;;;;;;;-5.40;61.62;101293.75;222584;1258;140326;-69
2022/12/18 20:04:15;;;;;;;72.40;32.80;;;;;;;-5.37;61.47;101303.38;222679;1263;139084;-65
2022/12/18 20:09:22;;;;;;;73.90;33.00;;;;;;;-5.35;61.60;101298.64;222550;1262;139509;-67
2022/12/18 20:14:26;;;;;;;74.50;34.00;;;;;;;-5.33;61.60;101297.68;222682;1260;139346;-67
2022/12/18 20:19:31;;;;;;;152.70;73.20;;;;;;;-5.06;65.62;101287.59;222613;1260;140442;-68
2022/12/18 20:24:36;;;;;;;86.80;36.90;;;;;;;-4.81;62.92;101286.99;222713;1262;139714;-67
2022/12/18 20:29:39;;;;;;;71.20;31.50;;;;;;;-4.96;61.20;101303.91;222562;1264;139429;-67
2022/12/18 20:34:42;;;;;;;72.70;31.50;;;;;;;-5.08;61.05;101309.70;222663;1257;140200;-68
2022/12/18 20:39:45;;;;;;;68.10;30.70;;;;;;;-5.19;60.92;101310.49;222692;1259;139708;-70
2022/12/18 20:44:49;;;;;;;69.90;31.10;;;;;;;-5.27;60.91;101310.02;222570;1264;139499;-70
2022/12/18 20:49:52;;;;;;;67.10;27.90;;;;;;;-5.37;60.91;101300.27;222583;1262;139681;-70
2022/12/18 20:54:55;;;;;;;63.40;28.30;;;;;;;-5.38;61.47;101291.23;222808;1261;139309;-66
2022/12/18 21:00:09;;;;;;;67.70;28.80;;;;;;;-5.35;61.78;101288.23;223053;1274;139621;-69
2022/12/18 21:05:17;;;;;;;59.90;27.50;;;;;;;-5.33;61.57;101277.06;222533;1261;139646;-69
2022/12/18 21:10:24;;;;;;;63.10;27.80;;;;;;;-5.34;61.45;101270.61;222753;1260;139135;-65
2022/12/18 21:15:29;;;;;;;61.10;28.30;;;;;;;-5.36;61.04;101259.84;222642;1261;139571;-68
2022/12/18 21:20:34;;;;;;;64.90;28.30;;;;;;;-5.43;60.61;101259.73;222689;1261;139140;-67
2022/12/18 21:25:39;;;;;;;59.70;28.20;;;;;;;-5.53;60.62;101266.13;222619;1264;139359;-67
2022/12/18 21:30:43;;;;;;;57.10;26.80;;;;;;;-5.61;60.37;101266.81;222724;1260;139221;-67
2022/12/18 21:35:53;;;;;;;39.00;17.70;;;;;;;-5.72;60.32;101257.08;222633;1261;139016;-68
2022/12/18 21:44:04;;;;;;;56.00;26.10;;;;;;;-5.79;60.49;101246.95;222652;1261;139889;-66
2022/12/18 21:46:38;;;;;;;55.40;26.10;;;;;;;-5.87;60.36;101237.64;222550;1288;140096;-67
2022/12/18 21:51:44;;;;;;;65.70;26.00;;;;;;;-5.89;60.89;101233.21;222552;1276;139251;-69
2022/12/18 21:56:52;;;;;;;60.50;26.60;;;;;;;-5.88;61.14;101230.49;222652;1261;139403;-68
2022/12/18 22:02:12;;;;;;;61.50;26.90;;;;;;;-5.90;60.55;101233.88;222544;1261;139753;-68
2022/12/18 22:07:19;;;;;;;60.80;26.10;;;;;;;-5.94;60.62;101234.45;222596;1257;139652;-67
2022/12/18 22:12:44;;;;;;;;;;;;;;;;;;;;;
2022/12/18 22:17:52;;;;;;;54.80;26.40;;;;;;;-6.03;60.50;101239.80;222537;1264;139411;-67
2022/12/18 22:24:14;;;;;;;65.30;26.80;;;;;;;-6.13;60.44;101244.04;222652;1260;139926;-67
2022/12/18 22:35:04;;;;;;;60.70;26.60;;;;;;;-6.16;61.15;101240.61;222462;1264;140027;-66
2022/12/18 22:40:50;;;;;;;58.40;26.60;;;;;;;-6.21;60.81;101234.05;222592;1286;140662;-68
2022/12/18 22:46:02;;;;;;;72.90;30.40;;;;;;;-6.25;60.94;101222.50;222569;1261;139763;-69
2022/12/18 22:51:20;;;;;;;72.10;28.80;;;;;;;-6.25;60.70;101221.95;222558;1261;140340;-69
2022/12/18 22:57:00;;;;;;;66.70;28.90;;;;;;;-6.16;61.03;101226.64;222628;1261;139999;-69
2022/12/18 23:02:09;;;;;;;75.10;33.20;;;;;;;-6.05;60.85;101219.32;222599;1261;140215;-67
2022/12/18 23:07:49;;;;;;;68.70;30.70;;;;;;;-5.89;61.29;101211.98;222508;1270;140015;-68
2022/12/18 23:12:58;;;;;;;66.70;31.50;;;;;;;-5.79;61.24;101214.25;222772;1261;139963;-69
2022/12/18 23:18:35;;;;;;;66.20;30.80;;;;;;;-5.78;60.59;101210.67;222709;1260;139456;-67
2022/12/18 23:24:00;;;;;;;72.40;30.90;;;;;;;-5.86;60.55;101211.39;222968;1260;139277;-67
2022/12/18 23:29:15;;;;;;;70.90;30.50;;;;;;;-5.88;60.94;101212.69;222739;1261;139215;-65
2022/12/18 23:34:34;;;;;;;65.70;29.70;;;;;;;-5.88;61.12;101210.64;222560;1261;139944;-66
2022/12/18 23:39:47;;;;;;;67.80;29.20;;;;;;;-5.87;61.33;101217.41;222650;1269;139522;-66
2022/12/18 23:45:03;;;;;;;64.20;27.80;;;;;;;-5.92;61.00;101215.13;222525;1264;139087;-67
2022/12/18 23:50:26;;;;;;;64.70;29.20;;;;;;;-6.02;60.67;101218.75;222725;1265;139564;-66
2022/12/18 23:56:17;;;;;;;;;;;;;;;;;;;;;
